Terminal Aerodrome Forecast
Issued by NWS

Current Version | Previous Version | Text Only | Print | Product List | Glossary On
Versions: 1 2 3 4 5 6 7 8 9 10 11 12 13 14 15 16 17 18
623
FTUS42 KFFC 261127
TAFPDK
TAF
KPDK 261127Z 2612/2712 00000KT P6SM SCT070
     FM261500 08005KT P6SM VCSH BKN060
     FM261800 10006KT 6SM -SHRA BKN025 OVC045
      TEMPO 2619/2623 3SM -TSRA BKN015CB
     FM262300 21005KT 6SM -SHRA BKN020
     FM270000 25005KT P6SM BKN025
     FM270600 29005KT P6SM OVC008=

USA.gov is the U.S. government's official web portal to all federal, state and local government web resources and services.